createdAt,value
2022-11-17T00:00:44.313Z,7.10
2022-11-17T00:03:15.788Z,7.10
2022-11-17T00:05:46.080Z,7.10
2022-11-17T00:08:13.986Z,7.10
2022-11-17T00:10:40.794Z,7.10
2022-11-17T00:13:28.988Z,7.20
2022-11-17T00:15:58.254Z,7.10
2022-11-17T00:18:43.730Z,7.10
2022-11-17T00:21:19.824Z,7.10
2022-11-17T00:23:47.300Z,7.10
2022-11-17T00:26:24.878Z,7.10
2022-11-17T00:28:54.524Z,7.10
2022-11-17T00:31:41.213Z,7.10
2022-11-17T00:34:15.436Z,7.10
2022-11-17T00:36:53.939Z,7.30
2022-11-17T00:39:23.387Z,7.10
2022-11-17T00:41:50.358Z,7.10
2022-11-17T00:44:18.466Z,7.10
2022-11-17T00:46:45.261Z,7.00
2022-11-17T00:49:12.926Z,7.00
2022-11-17T00:51:39.819Z,7.00
2022-11-17T00:54:09.949Z,7.00
2022-11-17T00:56:38.095Z,7.00
2022-11-17T00:59:05.070Z,6.90
2022-11-17T01:01:32.335Z,6.90
2022-11-17T01:04:03.662Z,6.90
2022-11-17T01:06:35.503Z,6.90
2022-11-17T01:09:05.613Z,6.90
2022-11-17T01:11:33.819Z,6.90
2022-11-17T01:14:01.438Z,6.90
2022-11-17T01:16:30.837Z,6.90
2022-11-17T01:19:00.783Z,6.90
2022-11-17T01:21:28.956Z,6.90
2022-11-17T01:23:58.547Z,6.80
2022-11-17T01:26:30.795Z,6.80
2022-11-17T01:29:00.458Z,6.80
2022-11-17T01:31:30.576Z,6.80
2022-11-17T01:33:58.273Z,6.80
2022-11-17T01:36:30.208Z,6.80
2022-11-17T01:39:00.244Z,6.80
2022-11-17T01:41:28.676Z,6.80
2022-11-17T01:43:58.109Z,6.70
2022-11-17T01:46:35.575Z,6.70
2022-11-17T01:49:21.460Z,6.70
2022-11-17T01:51:59.277Z,6.70
2022-11-17T01:54:30.110Z,6.70
2022-11-17T01:57:06.665Z,6.70
2022-11-17T01:59:55.885Z,6.60
2022-11-17T02:02:23.403Z,6.70
2022-11-17T02:05:22.377Z,6.70
2022-11-17T02:07:54.449Z,6.60
2022-11-17T02:10:22.324Z,6.60
2022-11-17T02:12:49.512Z,6.60
2022-11-17T02:15:16.730Z,6.60
2022-11-17T02:17:45.485Z,6.60
2022-11-17T02:20:41.525Z,6.70
2022-11-17T02:23:29.986Z,6.60
2022-11-17T02:26:08.598Z,6.60
2022-11-17T02:28:42.045Z,6.60
2022-11-17T02:31:29.746Z,6.50
2022-11-17T02:34:23.388Z,6.50
2022-11-17T02:36:56.954Z,6.50
2022-11-17T02:39:38.404Z,6.50
2022-11-17T02:42:16.159Z,6.50
2022-11-17T02:44:59.554Z,6.50
2022-11-17T02:47:30.159Z,6.50
2022-11-17T02:50:03.148Z,6.40
2022-11-17T02:52:31.776Z,6.40
2022-11-17T02:55:04.805Z,6.40
2022-11-17T02:57:38.842Z,6.40
2022-11-17T03:00:08.717Z,6.40
2022-11-17T03:02:51.509Z,6.40
2022-11-17T03:05:53.856Z,6.40
2022-11-17T03:09:04.755Z,6.40
2022-11-17T03:11:44.965Z,6.40
2022-11-17T03:14:31.415Z,6.40
2022-11-17T03:17:11.197Z,6.40
2022-11-17T03:19:59.560Z,6.30
2022-11-17T03:22:50.564Z,6.30
2022-11-17T03:25:20.589Z,6.40
2022-11-17T03:27:54.007Z,6.30
2022-11-17T03:30:23.042Z,6.30
2022-11-17T03:32:57.274Z,6.40
2022-11-17T03:35:31.902Z,6.30
2022-11-17T03:38:13.374Z,6.30
2022-11-17T03:40:45.923Z,6.30
2022-11-17T03:43:19.240Z,6.30
2022-11-17T03:45:51.941Z,6.30
2022-11-17T03:48:57.480Z,6.30
2022-11-17T03:51:29.687Z,6.20
2022-11-17T03:54:00.936Z,6.20
2022-11-17T03:57:01.010Z,6.20
2022-11-17T03:59:36.537Z,6.20
2022-11-17T04:02:05.302Z,6.20
2022-11-17T04:04:53.340Z,6.20
2022-11-17T04:07:21.704Z,6.20
2022-11-17T04:09:48.503Z,6.20
2022-11-17T04:12:34.079Z,6.20
2022-11-17T04:15:19.718Z,6.10
2022-11-17T04:17:47.917Z,6.10
2022-11-17T04:20:16.755Z,6.10
2022-11-17T04:22:43.580Z,6.10
2022-11-17T04:25:32.969Z,6.10
2022-11-17T04:28:20.237Z,6.10
2022-11-17T04:30:50.214Z,6.10
2022-11-17T04:33:18.708Z,6.00
2022-11-17T04:35:51.775Z,6.00
2022-11-17T04:38:19.880Z,6.00
2022-11-17T04:41:05.521Z,6.00
2022-11-17T04:43:34.072Z,6.00
2022-11-17T04:46:01.511Z,6.00
2022-11-17T04:48:29.520Z,5.90
2022-11-17T04:50:58.400Z,5.90
2022-11-17T04:53:26.777Z,5.90
2022-11-17T04:55:53.574Z,5.90
2022-11-17T04:58:22.286Z,5.90
2022-11-17T05:00:49.042Z,5.90
2022-11-17T05:03:17.805Z,5.90
2022-11-17T05:05:47.154Z,5.90
2022-11-17T05:08:15.359Z,5.90
2022-11-17T05:11:01.895Z,5.90
2022-11-17T05:13:29.912Z,5.90
2022-11-17T05:16:17.808Z,5.90
2022-11-17T05:18:45.824Z,5.80
2022-11-17T05:21:12.632Z,5.80
2022-11-17T05:23:55.602Z,5.80
2022-11-17T05:26:27.393Z,5.90
2022-11-17T05:28:59.092Z,5.80
2022-11-17T05:31:30.510Z,5.80
2022-11-17T05:33:58.019Z,5.80
2022-11-17T05:36:28.525Z,5.80
2022-11-17T05:38:55.873Z,5.80
2022-11-17T05:41:23.883Z,5.80
2022-11-17T05:43:51.523Z,5.80
2022-11-17T05:46:21.804Z,5.80
2022-11-17T05:48:50.160Z,5.80
2022-11-17T05:51:19.149Z,5.90
2022-11-17T05:53:47.688Z,5.80
2022-11-17T05:56:24.805Z,5.90
2022-11-17T05:59:02.236Z,5.90
2022-11-17T06:01:33.174Z,5.80
2022-11-17T06:04:03.376Z,5.90
2022-11-17T06:06:34.692Z,5.90
2022-11-17T06:09:01.491Z,5.90
2022-11-17T06:11:30.100Z,5.90
2022-11-17T06:13:56.853Z,5.90
2022-11-17T06:16:27.096Z,5.90
2022-11-17T06:19:01.545Z,5.90
2022-11-17T06:21:43.253Z,5.80
2022-11-17T06:24:18.524Z,5.90
2022-11-17T06:26:47.301Z,5.80
2022-11-17T06:29:15.628Z,5.80
2022-11-17T06:31:43.262Z,5.90
2022-11-17T06:34:10.510Z,5.90
2022-11-17T06:36:39.250Z,5.90
2022-11-17T06:39:07.336Z,5.90
2022-11-17T06:41:36.660Z,5.80
2022-11-17T06:44:03.464Z,5.80
2022-11-17T06:46:38.098Z,5.80
2022-11-17T06:49:07.612Z,5.80
2022-11-17T06:51:35.682Z,5.80
2022-11-17T06:54:04.114Z,5.80
2022-11-17T06:56:32.155Z,5.70
2022-11-17T06:59:00.902Z,5.80
2022-11-17T07:01:29.042Z,5.80
2022-11-17T07:03:55.827Z,5.80
2022-11-17T07:06:23.952Z,5.70
2022-11-17T07:08:52.215Z,5.70
2022-11-17T07:11:19.154Z,5.80
2022-11-17T07:13:47.234Z,5.70
2022-11-17T07:16:22.832Z,5.70
2022-11-17T07:18:50.752Z,5.70
2022-11-17T07:21:17.971Z,5.70
2022-11-17T07:23:45.952Z,5.80
2022-11-17T07:26:15.559Z,5.80
2022-11-17T07:28:44.204Z,5.70
2022-11-17T07:31:10.965Z,5.70
2022-11-17T07:33:37.853Z,5.70
2022-11-17T07:36:09.451Z,5.70
2022-11-17T07:38:39.680Z,5.70
2022-11-17T07:41:07.864Z,5.70
2022-11-17T07:43:35.845Z,5.70
2022-11-17T07:46:15.630Z,5.70
2022-11-17T07:48:44.683Z,5.70
2022-11-17T07:51:13.924Z,5.70
2022-11-17T07:53:40.816Z,5.70
2022-11-17T07:56:11.816Z,5.70
2022-11-17T07:58:39.710Z,5.70
2022-11-17T08:01:11.169Z,5.70
2022-11-17T08:03:38.149Z,5.70
2022-11-17T08:06:07.516Z,5.70
2022-11-17T08:08:38.327Z,5.70
2022-11-17T08:11:10.602Z,5.70
2022-11-17T08:13:39.429Z,5.70
2022-11-17T08:16:10.707Z,5.70
2022-11-17T08:18:40.245Z,5.70
2022-11-17T08:21:14.699Z,5.70
2022-11-17T08:23:43.371Z,5.70
2022-11-17T08:26:11.821Z,5.70
2022-11-17T08:28:40.711Z,5.70
2022-11-17T08:31:09.143Z,5.70
2022-11-17T08:33:37.458Z,5.70
2022-11-17T08:36:08.300Z,5.70
2022-11-17T08:38:36.743Z,5.60
2022-11-17T08:41:07.389Z,5.70
2022-11-17T08:43:35.585Z,5.70
2022-11-17T08:46:03.160Z,5.70
2022-11-17T08:48:31.520Z,5.70
2022-11-17T08:50:58.439Z,5.70
2022-11-17T08:53:26.498Z,5.70
2022-11-17T08:55:53.302Z,5.70
2022-11-17T08:58:20.094Z,5.70
2022-11-17T09:00:47.513Z,5.70
2022-11-17T09:03:16.640Z,5.80
2022-11-17T09:05:50.767Z,5.70
2022-11-17T09:11:09.095Z,5.70
2022-11-17T09:13:39.003Z,5.70
2022-11-17T09:16:09.912Z,5.80
2022-11-17T09:18:38.787Z,5.70
2022-11-17T09:21:10.348Z,5.70
2022-11-17T09:23:37.896Z,5.70
2022-11-17T09:26:10.669Z,5.70
2022-11-17T09:28:39.080Z,5.70
2022-11-17T09:31:16.336Z,5.70
2022-11-17T09:33:43.748Z,5.80
2022-11-17T09:36:13.559Z,5.70
2022-11-17T09:38:42.101Z,5.70
2022-11-17T09:41:24.371Z,5.80
2022-11-17T09:44:04.563Z,5.80
2022-11-17T09:46:35.329Z,5.80
2022-11-17T09:49:08.040Z,5.80
2022-11-17T09:51:39.574Z,5.80
2022-11-17T09:54:18.655Z,5.80
2022-11-17T09:56:47.796Z,5.80
2022-11-17T09:59:19.514Z,5.80
2022-11-17T10:01:47.555Z,6.00
2022-11-17T10:04:17.013Z,5.80
2022-11-17T10:06:49.369Z,5.80
2022-11-17T10:09:43.179Z,5.80
2022-11-17T10:12:19.185Z,5.80
2022-11-17T10:14:49.267Z,5.80
2022-11-17T10:17:16.326Z,5.80
2022-11-17T10:19:45.229Z,5.80
2022-11-17T10:22:32.454Z,5.90
2022-11-17T10:25:00.827Z,5.90
2022-11-17T10:27:34.977Z,5.90
2022-11-17T10:30:07.830Z,5.90
2022-11-17T10:32:48.249Z,5.90
2022-11-17T10:35:23.720Z,5.90
2022-11-17T10:37:58.214Z,5.90
2022-11-17T10:40:30.689Z,5.90
2022-11-17T10:43:23.647Z,5.90
2022-11-17T10:46:03.522Z,5.90
2022-11-17T10:48:31.604Z,5.90
2022-11-17T10:51:09.203Z,5.90
2022-11-17T10:53:45.543Z,5.90
2022-11-17T10:56:18.907Z,5.90
2022-11-17T10:59:24.733Z,5.90
2022-11-17T11:01:51.681Z,6.00
2022-11-17T11:04:34.778Z,6.00
2022-11-17T11:07:14.764Z,6.00
2022-11-17T11:09:59.492Z,6.00
2022-11-17T11:13:01.894Z,6.00
2022-11-17T11:15:36.595Z,6.00
2022-11-17T11:18:13.719Z,6.00
2022-11-17T11:20:41.980Z,6.00
2022-11-17T11:23:27.537Z,6.10
2022-11-17T11:26:07.902Z,6.10
2022-11-17T11:29:06.541Z,6.10
2022-11-17T11:31:54.526Z,6.10
2022-11-17T11:34:44.452Z,6.10
2022-11-17T11:37:16.233Z,6.10
2022-11-17T11:40:00.383Z,6.20
2022-11-17T11:42:42.298Z,6.20
2022-11-17T11:45:46.786Z,6.20
2022-11-17T11:48:35.169Z,6.20
2022-11-17T11:51:29.056Z,6.20
2022-11-17T11:54:16.495Z,6.20
2022-11-17T11:56:48.292Z,6.20
2022-11-17T11:59:21.124Z,6.20
2022-11-17T12:02:12.800Z,6.10
2022-11-17T12:05:15.335Z,6.20
2022-11-17T12:07:54.276Z,6.10
2022-11-17T12:10:48.079Z,6.10
2022-11-17T12:13:18.987Z,6.00
2022-11-17T12:15:46.065Z,6.00
2022-11-17T12:18:30.516Z,6.00
2022-11-17T12:21:13.377Z,6.00
2022-11-17T12:24:05.054Z,6.00
2022-11-17T12:26:34.133Z,6.00
2022-11-17T12:29:20.302Z,6.00
2022-11-17T12:31:49.091Z,6.00
2022-11-17T12:34:33.581Z,5.90
2022-11-17T12:37:15.233Z,6.00
2022-11-17T12:40:01.576Z,6.00
2022-11-17T12:42:36.112Z,6.00
2022-11-17T12:45:06.681Z,5.90
2022-11-17T12:47:42.186Z,5.90
2022-11-17T12:50:19.166Z,6.00
2022-11-17T12:53:05.747Z,6.00
2022-11-17T12:56:04.159Z,6.00
2022-11-17T12:58:46.393Z,6.00
2022-11-17T13:01:28.591Z,6.00
2022-11-17T13:04:12.748Z,6.00
2022-11-17T13:06:57.534Z,6.00
2022-11-17T13:09:28.898Z,6.00
2022-11-17T13:12:05.014Z,6.10
2022-11-17T13:14:36.359Z,6.10
2022-11-17T13:17:11.400Z,6.10
2022-11-17T13:19:41.407Z,6.20
2022-11-17T13:22:16.146Z,6.20
2022-11-17T13:24:47.341Z,6.20
2022-11-17T13:27:31.290Z,6.20
2022-11-17T13:30:24.333Z,6.20
2022-11-17T13:32:52.551Z,6.20
2022-11-17T13:35:30.937Z,6.20
2022-11-17T13:38:19.401Z,6.20
2022-11-17T13:40:51.684Z,6.20
2022-11-17T13:43:21.401Z,6.20
2022-11-17T13:45:54.273Z,6.20
2022-11-17T13:48:35.089Z,6.20
2022-11-17T13:51:23.839Z,6.20
2022-11-17T13:54:12.873Z,6.20
2022-11-17T13:56:56.351Z,6.20
2022-11-17T13:59:34.365Z,6.20
2022-11-17T14:02:26.286Z,6.20
2022-11-17T14:05:26.648Z,6.20
2022-11-17T14:07:56.765Z,6.20
2022-11-17T14:10:34.169Z,6.20
2022-11-17T14:13:01.173Z,6.20
2022-11-17T14:15:30.974Z,6.20
2022-11-17T14:18:03.477Z,6.20
2022-11-17T14:20:35.840Z,6.20
2022-11-17T14:23:13.640Z,6.30
2022-11-17T14:25:48.190Z,6.30
2022-11-17T14:28:18.403Z,6.30
2022-11-17T14:30:51.407Z,6.40
2022-11-17T14:33:19.698Z,6.40
2022-11-17T14:35:59.081Z,6.40
2022-11-17T14:38:27.229Z,6.40
2022-11-17T14:40:55.471Z,6.40
2022-11-17T14:43:22.718Z,6.40
2022-11-17T14:45:51.629Z,6.40
2022-11-17T14:48:19.582Z,6.40
2022-11-17T14:50:47.483Z,6.40
2022-11-17T14:53:17.714Z,6.30
2022-11-17T14:55:44.438Z,6.40
2022-11-17T14:58:11.598Z,6.40
2022-11-17T15:00:39.729Z,6.40
2022-11-17T15:03:10.652Z,6.40
2022-11-17T15:05:45.223Z,6.30
2022-11-17T15:08:14.456Z,6.30
2022-11-17T15:10:45.586Z,6.30
2022-11-17T15:13:13.701Z,6.30
2022-11-17T15:15:40.529Z,6.30
2022-11-17T15:18:11.815Z,6.30
2022-11-17T15:20:39.842Z,6.30
2022-11-17T15:23:06.647Z,6.30
2022-11-17T15:25:37.206Z,6.30
2022-11-17T15:28:04.160Z,6.30
2022-11-17T15:30:30.912Z,6.30
2022-11-17T15:33:02.799Z,6.30
2022-11-17T15:35:31.914Z,6.20
2022-11-17T15:38:00.641Z,6.20
2022-11-17T15:40:27.419Z,6.20
2022-11-17T15:42:54.617Z,6.20
2022-11-17T15:45:21.757Z,6.20
2022-11-17T15:47:49.755Z,6.20
2022-11-17T15:50:17.335Z,6.20
2022-11-17T15:55:35.129Z,6.10
2022-11-17T15:58:04.073Z,6.00
2022-11-17T16:00:33.842Z,6.10
2022-11-17T16:03:01.059Z,6.00
2022-11-17T16:05:27.933Z,5.90
2022-11-17T16:07:55.703Z,6.00
2022-11-17T16:10:22.519Z,6.00
2022-11-17T16:12:51.279Z,6.00
2022-11-17T16:15:19.346Z,6.00
2022-11-17T16:17:47.366Z,6.00
2022-11-17T16:20:14.571Z,6.00
2022-11-17T16:22:41.553Z,6.00
2022-11-17T16:25:10.394Z,6.10
2022-11-17T16:27:38.419Z,6.00
2022-11-17T16:30:06.869Z,6.10
2022-11-17T16:32:34.048Z,6.00
2022-11-17T16:35:00.952Z,6.00
2022-11-17T16:37:29.010Z,6.00
2022-11-17T16:39:56.330Z,6.00
2022-11-17T16:42:24.878Z,6.00
2022-11-17T16:44:53.972Z,6.00
2022-11-17T16:47:20.791Z,6.00
2022-11-17T16:49:51.633Z,6.00
2022-11-17T16:52:20.054Z,6.00
2022-11-17T16:54:48.159Z,6.00
2022-11-17T16:57:18.777Z,6.00
2022-11-17T16:59:45.607Z,6.00
2022-11-17T17:02:13.707Z,6.00
2022-11-17T17:04:40.449Z,6.00
2022-11-17T17:07:07.270Z,6.00
2022-11-17T17:09:37.823Z,6.00
2022-11-17T17:12:06.343Z,6.00
2022-11-17T17:14:34.866Z,6.00
2022-11-17T17:17:01.780Z,6.00
2022-11-17T17:19:30.777Z,6.00
2022-11-17T17:21:59.073Z,6.00
2022-11-17T17:24:25.867Z,6.00
2022-11-17T17:26:52.881Z,6.00
2022-11-17T17:29:21.018Z,6.00
2022-11-17T17:31:47.904Z,6.00
2022-11-17T17:34:15.903Z,6.00
2022-11-17T17:36:43.982Z,6.00
2022-11-17T17:39:15.654Z,6.00
2022-11-17T17:41:44.488Z,6.00
2022-11-17T17:44:18.225Z,6.00
2022-11-17T17:46:48.393Z,6.00
2022-11-17T17:49:18.906Z,6.10
2022-11-17T17:51:47.375Z,6.10
2022-11-17T17:54:19.896Z,6.10
2022-11-17T17:56:49.512Z,6.10
2022-11-17T17:59:18.006Z,6.10
2022-11-17T18:01:47.276Z,6.10
2022-11-17T18:04:16.114Z,6.10
2022-11-17T18:06:48.996Z,6.10
2022-11-17T18:09:19.023Z,6.10
2022-11-17T18:11:49.551Z,6.10
2022-11-17T18:14:22.465Z,6.10
2022-11-17T18:16:51.523Z,6.10
2022-11-17T18:19:20.664Z,6.10
2022-11-17T18:21:48.789Z,6.10
2022-11-17T18:24:17.286Z,6.10
2022-11-17T18:26:44.086Z,6.10
2022-11-17T18:29:16.659Z,6.00
2022-11-17T18:31:46.660Z,6.00
2022-11-17T18:34:23.445Z,6.00
2022-11-17T18:36:55.426Z,6.00
2022-11-17T18:39:22.433Z,6.00
2022-11-17T18:41:49.269Z,6.00
2022-11-17T18:44:19.384Z,6.00
2022-11-17T18:46:47.613Z,6.00
2022-11-17T18:49:14.939Z,6.10
2022-11-17T18:51:44.393Z,6.00
2022-11-17T18:54:12.881Z,6.00
2022-11-17T18:56:39.987Z,6.00
2022-11-17T18:59:11.669Z,6.00
2022-11-17T19:01:41.963Z,6.00
2022-11-17T19:04:09.721Z,6.00
2022-11-17T19:06:38.397Z,6.00
2022-11-17T19:09:07.239Z,6.00
2022-11-17T19:11:34.581Z,6.10
2022-11-17T19:14:02.633Z,6.00
2022-11-17T19:16:31.949Z,6.00
2022-11-17T19:18:59.204Z,6.00
2022-11-17T19:21:35.706Z,6.10
2022-11-17T19:24:04.337Z,6.00
2022-11-17T19:26:34.747Z,6.00
2022-11-17T19:29:07.089Z,6.00
2022-11-17T19:31:37.902Z,6.10
2022-11-17T19:34:06.384Z,6.10
2022-11-17T19:36:36.437Z,6.00
2022-11-17T19:39:03.839Z,6.10
2022-11-17T19:41:40.996Z,6.00
2022-11-17T19:44:09.882Z,6.00
2022-11-17T19:46:37.323Z,6.00
2022-11-17T19:49:08.784Z,6.10
2022-11-17T19:51:36.945Z,6.00
2022-11-17T19:54:07.759Z,6.00
2022-11-17T19:56:35.604Z,6.00
2022-11-17T19:59:06.082Z,6.00
2022-11-17T20:01:33.883Z,6.10
2022-11-17T20:04:02.101Z,6.00
2022-11-17T20:06:34.692Z,6.10
2022-11-17T20:09:12.013Z,6.00
2022-11-17T20:11:41.279Z,6.10
2022-11-17T20:14:08.491Z,6.20
2022-11-17T20:16:38.650Z,6.10
2022-11-17T20:19:14.979Z,6.10
2022-11-17T20:21:43.404Z,6.10
2022-11-17T20:24:10.381Z,6.10
2022-11-17T20:26:40.831Z,6.10
2022-11-17T20:29:07.771Z,6.10
2022-11-17T20:31:37.362Z,6.10
2022-11-17T20:34:06.378Z,6.10
2022-11-17T20:36:34.420Z,6.10
2022-11-17T20:39:06.546Z,6.10
2022-11-17T20:41:34.855Z,6.20
2022-11-17T20:44:03.099Z,6.20
2022-11-17T20:46:30.282Z,6.20
2022-11-17T20:48:58.501Z,6.20
2022-11-17T20:51:26.007Z,6.10
2022-11-17T20:53:54.348Z,6.20
2022-11-17T20:56:21.286Z,6.10
2022-11-17T20:58:49.651Z,6.20
2022-11-17T21:01:19.619Z,6.20
2022-11-17T21:03:46.708Z,6.20
2022-11-17T21:06:14.241Z,6.20
2022-11-17T21:08:44.455Z,6.20
2022-11-17T21:11:34.873Z,6.20
2022-11-17T21:14:02.422Z,6.20
2022-11-17T21:16:30.593Z,6.10
2022-11-17T21:18:57.382Z,6.10
2022-11-17T21:21:25.670Z,6.20
2022-11-17T21:23:55.387Z,6.20
2022-11-17T21:26:24.157Z,6.20
2022-11-17T21:28:51.415Z,6.20
2022-11-17T21:31:21.454Z,6.00
2022-11-17T21:33:53.894Z,6.10
2022-11-17T21:36:21.796Z,6.10
2022-11-17T21:38:51.791Z,6.10
2022-11-17T21:41:21.783Z,6.10
2022-11-17T21:43:53.058Z,6.10
2022-11-17T21:46:22.793Z,6.10
2022-11-17T21:48:50.823Z,6.10
2022-11-17T21:51:21.602Z,6.10
2022-11-17T21:53:55.724Z,6.10
2022-11-17T21:56:27.742Z,6.10
2022-11-17T21:59:07.245Z,6.10
2022-11-17T22:01:35.942Z,6.10
2022-11-17T22:04:03.358Z,6.20
2022-11-17T22:06:30.972Z,6.10
2022-11-17T22:09:01.660Z,6.20
2022-11-17T22:11:37.832Z,6.10
2022-11-17T22:14:09.751Z,6.20
2022-11-17T22:16:40.906Z,6.10
2022-11-17T22:19:08.771Z,6.20
2022-11-17T22:21:39.100Z,6.20
2022-11-17T22:24:12.457Z,6.20
2022-11-17T22:26:41.947Z,6.20
2022-11-17T22:29:20.824Z,6.20
2022-11-17T22:31:48.957Z,6.20
2022-11-17T22:34:18.538Z,6.20
2022-11-17T22:36:45.500Z,6.20
2022-11-17T22:39:13.973Z,6.20
2022-11-17T22:41:41.036Z,6.20
2022-11-17T22:44:13.684Z,6.20
2022-11-17T22:46:42.127Z,6.20
2022-11-17T22:49:10.614Z,6.30
2022-11-17T22:51:55.762Z,6.30
2022-11-17T22:54:23.819Z,6.30
2022-11-17T22:56:50.626Z,6.30
2022-11-17T22:59:19.712Z,6.30
2022-11-17T23:01:46.618Z,6.30
2022-11-17T23:04:15.285Z,6.30
2022-11-17T23:06:45.207Z,6.30
2022-11-17T23:09:12.530Z,6.30
2022-11-17T23:11:41.718Z,6.30
2022-11-17T23:14:12.993Z,6.30
2022-11-17T23:16:40.546Z,6.30
2022-11-17T23:19:12.910Z,6.30
2022-11-17T23:21:40.124Z,6.30
2022-11-17T23:24:12.833Z,6.30
2022-11-17T23:26:42.215Z,6.30
2022-11-17T23:29:10.623Z,6.30
2022-11-17T23:31:37.455Z,6.30
2022-11-17T23:34:04.343Z,6.30
2022-11-17T23:36:31.278Z,6.30
2022-11-17T23:39:01.100Z,6.30
2022-11-17T23:41:29.074Z,6.30
2022-11-17T23:43:55.871Z,6.30
2022-11-17T23:46:25.345Z,6.30
2022-11-17T23:48:52.910Z,6.30
2022-11-17T23:51:23.270Z,6.30
2022-11-17T23:53:52.890Z,6.30
2022-11-17T23:56:21.241Z,6.30
2022-11-17T23:58:48.865Z,6.30
